Time;durP1;ratioP1;P1;durP2;ratioP2;P2;SDS_P1;SDS_P2;PMS_P1;PMS_P2;Temp;Humidity;BMP_temperature;BMP_pressure;BME280_temperature;BME280_humidity;BME280_pressure;Samples;Min_cycle;Max_cycle;Signal;HPM_P1;HPM_P2
2022/12/24 00:01:37;;;;;;;18.55;15.20;;;;;;;;;;5073681;28;20044;-73
2022/12/24 00:04:03;;;;;;;19.40;14.57;;;;;;;;;;5035303;28;20037;-71
2022/12/24 00:06:29;;;;;;;20.80;14.07;;;;;;;;;;5050251;28;20566;-74
2022/12/24 00:08:55;;;;;;;22.48;14.27;;;;;;;;;;5029880;28;20107;-75
2022/12/24 00:11:21;;;;;;;14.55;11.68;;;;;;;;;;5029085;28;21918;-74
2022/12/24 00:13:48;;;;;;;14.57;10.80;;;;;;;;;;5043928;28;20047;-74
2022/12/24 00:16:14;;;;;;;13.25;9.57;;;;;;;;;;5058672;28;20033;-75
2022/12/24 00:18:40;;;;;;;13.45;9.10;;;;;;;;;;5062846;28;20056;-75
2022/12/24 00:21:06;;;;;;;16.05;9.63;;;;;;;;;;5063686;28;20048;-75
2022/12/24 00:23:33;;;;;;;19.40;9.75;;;;;;;;;;5033248;28;20041;-75
2022/12/24 00:25:59;;;;;;;14.07;9.15;;;;;;;;;;5047698;28;20055;-75
2022/12/24 00:28:25;;;;;;;15.02;8.82;;;;;;;;;;5066495;28;20048;-76
2022/12/24 00:30:51;;;;;;;13.98;9.98;;;;;;;;;;5043628;28;20049;-76
2022/12/24 00:33:17;;;;;;;10.77;9.23;;;;;;;;;;5061407;28;20475;-75
2022/12/24 00:35:43;;;;;;;13.45;9.48;;;;;;;;;;5064170;28;20041;-76
2022/12/24 00:38:09;;;;;;;17.17;9.35;;;;;;;;;;5071347;28;20052;-76
2022/12/24 00:40:35;;;;;;;13.48;8.13;;;;;;;;;;5074068;28;20044;-76
2022/12/24 00:43:01;;;;;;;16.45;8.10;;;;;;;;;;5061493;28;20083;-76
2022/12/24 00:45:27;;;;;;;9.95;6.30;;;;;;;;;;5066046;28;20453;-76
2022/12/24 00:47:53;;;;;;;11.02;6.47;;;;;;;;;;5043105;28;20053;-76
2022/12/24 00:50:19;;;;;;;10.70;5.97;;;;;;;;;;5045486;28;20056;-76
2022/12/24 00:52:45;;;;;;;7.65;5.97;;;;;;;;;;5041056;28;20098;-76
2022/12/24 00:55:11;;;;;;;9.93;5.90;;;;;;;;;;5044174;28;20049;-75
2022/12/24 00:57:37;;;;;;;7.43;5.22;;;;;;;;;;5062098;28;20517;-74
2022/12/24 01:00:04;;;;;;;7.70;5.53;;;;;;;;;;5048528;28;20479;-75
2022/12/24 01:02:30;;;;;;;6.88;4.80;;;;;;;;;;5052964;28;20071;-75
2022/12/24 01:05:11;;;;;;;6.07;4.05;;;;;;;;;;5069519;28;20044;-75
2022/12/24 01:07:39;;;;;;;6.65;4.38;;;;;;;;;;5051998;28;20047;-75
2022/12/24 01:10:05;;;;;;;7.63;4.43;;;;;;;;;;5046407;28;20502;-75
2022/12/24 01:12:31;;;;;;;7.20;4.38;;;;;;;;;;5060953;28;20036;-75
2022/12/24 01:14:58;;;;;;;5.68;4.10;;;;;;;;;;5036455;28;20130;-75
2022/12/24 01:17:23;;;;;;;5.97;4.30;;;9.00;99.90;;;;;;5073506;28;20072;-76
2022/12/24 01:19:49;;;;;;;5.45;3.30;;;9.10;99.90;;;;;;5073692;28;20045;-75
2022/12/24 01:22:15;;;;;;;7.50;4.20;;;9.10;99.90;;;;;;5056357;28;20049;-75
2022/12/24 01:24:41;;;;;;;8.02;3.85;;;9.10;99.90;;;;;;5067716;28;20040;-75
2022/12/24 01:27:07;;;;;;;9.15;3.97;;;9.10;99.90;;;;;;5062688;28;20127;-75
2022/12/24 01:29:32;;;;;;;6.53;3.63;;;9.10;99.90;;;;;;5061203;28;20144;-75
2022/12/24 01:31:58;;;;;;;11.20;4.00;;;9.10;99.90;;;;;;5061431;28;20047;-75
2022/12/24 01:34:23;;;;;;;9.32;4.28;;;9.10;99.90;;;;;;5062053;28;20040;-75
2022/12/24 01:36:49;;;;;;;8.68;4.25;;;9.10;99.90;;;;;;5063820;28;20090;-75
2022/12/24 01:39:15;;;;;;;14.57;5.43;;;9.10;99.90;;;;;;5062472;28;20036;-75
2022/12/24 01:44:30;;;;;;;22.60;6.05;;;9.00;99.90;;;;;;5044468;28;20494;-75
2022/12/24 01:47:21;;;;;;;24.70;6.35;;;9.00;99.90;;;;;;5026840;28;20470;-75
2022/12/24 01:49:55;;;;;;;32.88;6.35;;;9.00;99.90;;;;;;5068030;28;20036;-75
2022/12/24 01:52:28;;;;;;;33.45;6.30;;;9.00;99.90;;;;;;5047220;28;20044;-75
2022/12/24 01:55:04;;;;;;;37.78;6.30;;;9.00;99.90;;;;;;5061057;28;20543;-75
2022/12/24 01:57:38;;;;;;;36.45;7.00;;;9.00;99.90;;;;;;5042536;28;20053;-75
2022/12/24 02:00:08;;;;;;;45.50;6.43;;;9.00;99.90;;;;;;5042133;28;20521;-75
2022/12/24 02:02:34;;;;;;;41.30;6.53;;;9.00;99.90;;;;;;5040121;28;20410;-76
2022/12/24 02:05:11;;;;;;;43.97;6.78;;;9.00;99.90;;;;;;5053557;28;20041;-76
2022/12/24 02:07:37;;;;;;;50.15;7.13;;;9.00;99.90;;;;;;5045366;28;20036;-76
2022/12/24 02:10:05;;;;;;;43.83;6.15;;;9.00;99.90;;;;;;5061507;28;20047;-76
2022/12/24 02:12:33;;;;;;;51.50;6.37;;;9.00;99.90;;;;;;5032374;28;20049;-76
2022/12/24 02:14:59;;;;;;;42.42;5.97;;;9.00;99.90;;;;;;5069619;28;20294;-76
2022/12/24 02:17:52;;;;;;;40.05;5.72;;;9.00;99.90;;;;;;5069164;28;20411;-76
2022/12/24 02:20:20;;;;;;;48.85;6.60;;;9.00;99.90;;;;;;5059995;28;20123;-75
2022/12/24 02:23:04;;;;;;;38.92;6.18;;;9.00;99.90;;;;;;5068564;28;20076;-75
2022/12/24 02:26:02;;;;;;;39.60;6.25;;;9.00;99.90;;;;;;5038791;28;20047;-75
2022/12/24 02:28:39;;;;;;;42.17;5.75;;;9.00;99.90;;;;;;5073391;28;20040;-75
2022/12/24 02:31:11;;;;;;;31.73;5.50;;;9.00;99.90;;;;;;5072299;28;20037;-75
2022/12/24 02:33:57;;;;;;;34.00;5.65;;;9.00;99.90;;;;;;5062741;28;20298;-76
2022/12/24 02:36:34;;;;;;;38.50;5.68;;;9.00;99.90;;;;;;5045365;28;20047;-76
2022/12/24 02:39:01;;;;;;;36.20;5.53;;;9.00;99.90;;;;;;5057927;28;20399;-76
2022/12/24 02:42:04;;;;;;;34.83;5.50;;;9.00;99.90;;;;;;5054480;28;20131;-76
2022/12/24 02:44:23;;;;;;;36.05;5.78;;;9.00;99.90;;;;;;5038661;28;20053;-76
2022/12/24 02:46:50;;;;;;;37.08;4.85;;;8.90;99.90;;;;;;5057186;28;20033;-76
2022/12/24 02:49:15;;;;;;;35.03;5.35;;;9.00;99.90;;;;;;5040734;28;20530;-75
2022/12/24 02:51:41;;;;;;;32.60;5.30;;;9.00;99.90;;;;;;5044934;28;20052;-75
2022/12/24 02:54:07;;;;;;;31.98;5.00;;;9.00;99.90;;;;;;5060316;28;20552;-75
2022/12/24 02:56:59;;;;;;;39.13;6.47;;;9.00;99.90;;;;;;5068281;28;20047;-75
2022/12/24 02:59:59;;;;;;;32.95;5.75;;;9.10;99.90;;;;;;5043355;28;20398;-76
2022/12/24 03:02:47;;;;;;;34.20;6.10;;;9.10;99.90;;;;;;5050792;28;20061;-76
2022/12/24 03:05:52;;;;;;;40.78;6.13;;;9.10;99.90;;;;;;5056913;28;20041;-76
2022/12/24 03:08:35;;;;;;;38.95;6.38;;;9.10;99.90;;;;;;5062487;28;20044;-76
2022/12/24 03:11:21;;;;;;;41.97;6.53;;;9.10;99.90;;;;;;5057042;28;20499;-76
2022/12/24 03:13:49;;;;;;;37.28;6.03;;;9.10;99.90;;;;;;5057521;28;20133;-76
2022/12/24 03:16:20;;;;;;;40.45;6.70;;;9.10;99.90;;;;;;5046404;28;20091;-76
2022/12/24 03:18:48;;;;;;;42.33;6.75;;;9.10;99.90;;;;;;5081861;28;20052;-76
2022/12/24 03:21:22;;;;;;;;;;;9.10;99.90;;;;;;5050197;28;20049;-76
2022/12/24 03:23:48;;;;;;;41.00;6.53;;;9.10;99.90;;;;;;5033166;28;19921;-76
2022/12/24 03:26:17;;;;;;;49.75;7.22;;;9.10;99.90;;;;;;5062949;28;20032;-76
2022/12/24 03:28:43;;;;;;;40.60;6.00;;;9.10;99.90;;;;;;5064648;28;20037;-76
2022/12/24 03:31:09;;;;;;;37.97;6.20;;;9.10;99.90;;;;;;5064792;28;20040;-76
2022/12/24 03:33:35;;;;;;;40.90;6.10;;;9.10;99.90;;;;;;5066689;28;20402;-76
2022/12/24 03:36:01;;;;;;;34.88;5.82;;;9.10;99.90;;;;;;5062303;28;20067;-76
2022/12/24 03:38:27;;;;;;;37.47;5.82;;;9.10;99.90;;;;;;5066437;28;20044;-76
2022/12/24 03:40:53;;;;;;;37.58;5.60;;;9.20;99.90;;;;;;5064687;28;20474;-76
2022/12/24 03:43:19;;;;;;;39.28;6.72;;;9.10;99.90;;;;;;5052164;28;20036;-75
2022/12/24 03:45:44;;;;;;;34.30;5.75;;;9.10;99.90;;;;;;5069748;28;20044;-78
2022/12/24 03:48:10;;;;;;;41.60;6.72;;;9.10;99.90;;;;;;5033257;28;20047;-76
2022/12/24 03:50:36;;;;;;;46.00;6.25;;;9.10;99.90;;;;;;5066052;28;20041;-77
2022/12/24 03:53:01;;;;;;;36.15;6.35;;;9.00;99.90;;;;;;5063783;28;20467;-76
2022/12/24 03:55:27;;;;;;;37.40;5.95;;;9.10;99.90;;;;;;5068021;28;20076;-77
2022/12/24 03:57:53;;;;;;;38.90;6.30;;;9.10;99.90;;;;;;5049854;28;20410;-75
2022/12/24 04:00:19;;;;;;;36.92;5.97;;;9.10;99.90;;;;;;5066223;28;20528;-75
2022/12/24 04:02:44;;;;;;;34.58;5.72;;;9.10;99.90;;;;;;5065705;28;20394;-75
2022/12/24 04:05:18;;;;;;;42.30;6.13;;;9.10;99.90;;;;;;5070632;28;20040;-75
2022/12/24 04:07:45;;;;;;;39.50;5.88;;;9.10;99.90;;;;;;5063038;28;20037;-75
2022/12/24 04:10:12;;;;;;;40.42;7.18;;;9.10;99.90;;;;;;5068780;28;20040;-75
2022/12/24 04:12:37;;;;;;;39.38;6.78;;;9.00;99.90;;;;;;5049303;28;20094;-75
2022/12/24 04:15:04;;;;;;;36.38;6.15;;;9.00;99.90;;;;;;5068879;28;20033;-75
2022/12/24 04:17:30;;;;;;;38.45;6.45;;;9.00;99.90;;;;;;5088415;28;20319;-75
2022/12/24 04:19:56;;;;;;;43.65;7.15;;;9.00;99.90;;;;;;5084949;28;20453;-76
2022/12/24 04:22:21;;;;;;;39.55;5.57;;;9.00;99.90;;;;;;5068856;28;20044;-75
2022/12/24 04:24:47;;;;;;;47.25;7.53;;;9.00;99.90;;;;;;5051829;28;20396;-75
2022/12/24 04:27:13;;;;;;;46.35;7.70;;;9.00;99.90;;;;;;5068452;28;21401;-76
2022/12/24 04:29:39;;;;;;;38.78;6.53;;;9.00;99.90;;;;;;5062592;28;20047;-75
2022/12/24 04:32:05;;;;;;;40.10;6.22;;;9.00;99.90;;;;;;5045345;28;20554;-75
2022/12/24 04:34:30;;;;;;;46.28;7.25;;;9.00;99.90;;;;;;5063564;28;20503;-75
2022/12/24 04:36:56;;;;;;;46.60;6.70;;;9.00;99.90;;;;;;5048033;28;20059;-75
2022/12/24 04:39:22;;;;;;;40.35;6.60;;;8.90;99.90;;;;;;5070109;28;20053;-75
2022/12/24 04:41:47;;;;;;;43.47;6.55;;;8.90;99.90;;;;;;5068522;28;20486;-76
2022/12/24 04:44:13;;;;;;;40.33;6.38;;;8.90;99.90;;;;;;5053346;28;20036;-76
2022/12/24 04:46:39;;;;;;;40.05;6.95;;;8.90;99.90;;;;;;5049532;28;20056;-75
2022/12/24 04:49:05;;;;;;;38.10;6.35;;;8.90;99.90;;;;;;5067524;28;20071;-76
2022/12/24 04:51:31;;;;;;;46.55;7.28;;;8.80;99.90;;;;;;5066992;28;20502;-76
2022/12/24 04:53:56;;;;;;;40.30;6.38;;;8.80;99.90;;;;;;5063412;28;20625;-76
2022/12/24 04:56:25;;;;;;;48.40;7.15;;;8.80;99.90;;;;;;5065360;28;20036;-76
2022/12/24 04:58:51;;;;;;;41.40;6.60;;;8.80;99.90;;;;;;5066770;28;20047;-76
2022/12/24 05:01:23;;;;;;;49.55;7.20;;;8.80;99.90;;;;;;5061937;28;20406;-76
2022/12/24 05:03:49;;;;;;;40.75;6.57;;;8.80;99.90;;;;;;5046127;28;20058;-76
2022/12/24 05:06:18;;;;;;;44.78;6.93;;;8.90;99.90;;;;;;5048067;28;20060;-76
2022/12/24 05:08:43;;;;;;;47.40;8.10;;;8.80;99.90;;;;;;5050129;28;20040;-76
2022/12/24 05:11:13;;;;;;;43.17;6.50;;;8.90;99.90;;;;;;5057390;28;20048;-76
2022/12/24 05:13:39;;;;;;;48.22;5.93;;;8.90;99.90;;;;;;5040140;28;20045;-76
2022/12/24 05:16:05;;;;;;;47.55;6.53;;;8.80;99.90;;;;;;5060656;28;20044;-76
2022/12/24 05:18:30;;;;;;;44.85;7.10;;;8.90;99.90;;;;;;5065593;28;20516;-77
2022/12/24 05:20:56;;;;;;;46.92;7.00;;;8.90;99.90;;;;;;5050134;28;20044;-76
2022/12/24 05:26:23;;;;;;;34.47;6.47;;;8.80;99.90;;;;;;5055646;28;20045;-75
2022/12/24 05:28:51;;;;;;;46.30;6.32;;;8.80;99.90;;;;;;5058425;28;20041;-75
2022/12/24 05:31:17;;;;;;;52.28;7.32;;;8.80;99.90;;;;;;5061597;28;20044;-75
2022/12/24 05:33:43;;;;;;;44.75;6.75;;;8.80;99.90;;;;;;5060459;28;20037;-76
2022/12/24 05:36:09;;;;;;;46.70;6.63;;;8.80;99.90;;;;;;5036746;28;20105;-74
2022/12/24 05:38:35;;;;;;;42.03;6.43;;;8.80;99.90;;;;;;5061675;28;20642;-75
2022/12/24 05:41:00;;;;;;;46.60;6.68;;;8.80;99.90;;;;;;5054495;28;20139;-75
2022/12/24 05:43:26;;;;;;;41.85;6.10;;;8.80;99.90;;;;;;5057722;28;20041;-76
2022/12/24 05:45:57;;;;;;;42.13;7.57;;;8.80;99.90;;;;;;5059075;28;20051;-76
2022/12/24 05:48:23;;;;;;;41.80;6.32;;;8.70;99.90;;;;;;5061950;28;20051;-76
2022/12/24 05:50:48;;;;;;;36.20;5.82;;;8.80;99.90;;;;;;5063448;28;20046;-76
2022/12/24 05:53:14;;;;;;;35.47;5.28;;;8.70;99.90;;;;;;5064422;28;20402;-76
2022/12/24 05:55:40;;;;;;;45.63;6.03;;;8.70;99.90;;;;;;5063828;28;20048;-76
2022/12/24 05:58:05;;;;;;;39.38;5.88;;;8.70;99.90;;;;;;5055673;28;20053;-76
2022/12/24 06:00:31;;;;;;;46.47;5.95;;;8.70;99.90;;;;;;5064425;28;20048;-76
2022/12/24 06:02:57;;;;;;;38.22;6.25;;;8.70;99.90;;;;;;5065734;28;20047;-76
2022/12/24 06:05:23;;;;;;;34.38;5.40;;;8.70;99.90;;;;;;5061898;28;20048;-76
2022/12/24 06:07:48;;;;;;;40.22;5.93;;;8.70;99.90;;;;;;5073706;28;20040;-76
2022/12/24 06:10:14;;;;;;;45.05;5.85;;;8.70;99.90;;;;;;5066143;28;20036;-76
2022/12/24 06:12:40;;;;;;;38.67;5.90;;;8.60;99.90;;;;;;5043804;28;20049;-75
2022/12/24 06:15:06;;;;;;;34.38;5.10;;;8.60;99.90;;;;;;5061497;28;20123;-75
2022/12/24 06:17:32;;;;;;;36.78;6.10;;;8.60;99.90;;;;;;5061001;28;20423;-74
2022/12/24 06:19:58;;;;;;;35.20;6.15;;;8.50;99.90;;;;;;5053588;28;20053;-75
2022/12/24 06:22:23;;;;;;;37.55;5.53;;;8.50;99.90;;;;;;5051957;28;20045;-75
2022/12/24 06:24:49;;;;;;;39.55;5.85;;;8.50;99.90;;;;;;5056463;28;20059;-76
2022/12/24 06:27:14;;;;;;;30.52;5.25;;;8.40;99.90;;;;;;5056601;28;20067;-75
2022/12/24 06:29:40;;;;;;;39.08;6.43;;;8.50;99.90;;;;;;5039763;28;20048;-77
2022/12/24 06:32:05;;;;;;;33.35;5.75;;;8.40;99.90;;;;;;5058746;28;20465;-76
2022/12/24 06:34:31;;;;;;;41.53;6.35;;;8.30;99.90;;;;;;5058706;28;20045;-76
2022/12/24 06:36:57;;;;;;;38.60;5.72;;;8.20;99.90;;;;;;5040042;28;20495;-76
2022/12/24 06:39:22;;;;;;;42.45;6.10;;;8.20;99.90;;;;;;5054990;28;21311;-76
2022/12/24 06:41:48;;;;;;;45.05;6.30;;;8.20;99.90;;;;;;5060948;28;20051;-76
2022/12/24 06:44:13;;;;;;;43.17;6.05;;;8.10;99.90;;;;;;5057022;28;20505;-76
2022/12/24 06:46:39;;;;;;;41.30;6.75;;;8.10;99.90;;;;;;5056214;28;20136;-76
2022/12/24 06:49:05;;;;;;;41.55;6.38;;;8.10;99.90;;;;;;5056673;28;20049;-76
2022/12/24 06:51:30;;;;;;;42.70;7.32;;;8.00;99.90;;;;;;5043764;28;20129;-75
2022/12/24 06:53:56;;;;;;;39.83;7.45;;;8.00;99.90;;;;;;5059110;28;20545;-75
2022/12/24 06:56:21;;;;;;;37.92;5.47;;;8.00;99.90;;;;;;5041422;28;20044;-75
2022/12/24 06:58:47;;;;;;;49.30;6.28;;;8.00;99.90;;;;;;5043044;28;20036;-75
2022/12/24 07:01:15;;;;;;;44.95;6.20;;;8.10;99.90;;;;;;5060573;28;20037;-75
2022/12/24 07:03:41;;;;;;;39.67;5.85;;;8.10;99.90;;;;;;5058557;28;20056;-75
2022/12/24 07:06:15;;;;;;;43.35;6.70;;;8.10;99.90;;;;;;5060508;28;20052;-75
2022/12/24 07:08:40;;;;;;;41.08;6.93;;;8.10;99.90;;;;;;5039772;28;20141;-76
2022/12/24 07:11:06;;;;;;;34.00;6.90;;;8.10;99.90;;;;;;5060155;28;20037;-76
2022/12/24 07:13:33;;;;;;;35.38;6.18;;;8.10;99.90;;;;;;5035867;28;20395;-76
2022/12/24 07:16:03;;;;;;;41.60;6.85;;;8.10;99.90;;;;;;5040284;28;20429;-77
2022/12/24 07:18:29;;;;;;;42.13;6.15;;;8.10;99.90;;;;;;5047021;28;20053;-76
2022/12/24 07:20:55;;;;;;;39.83;5.78;;;8.00;99.90;;;;;;5041082;28;20052;-77
2022/12/24 07:23:21;;;;;;;45.03;6.57;;;8.00;99.90;;;;;;5066590;28;20056;-76
2022/12/24 07:25:47;;;;;;;43.22;6.65;;;8.00;99.90;;;;;;5058135;28;20045;-76
2022/12/24 07:28:12;;;;;;;42.13;6.55;;;8.10;99.90;;;;;;5066783;28;20037;-76
2022/12/24 07:30:38;;;;;;;41.00;6.95;;;8.10;99.90;;;;;;5062260;28;20129;-76
2022/12/24 07:33:03;;;;;;;41.83;7.53;;;8.20;99.90;;;;;;5058678;28;20404;-76
2022/12/24 07:35:29;;;;;;;52.22;7.55;;;8.20;99.90;;;;;;5058929;28;20037;-76
2022/12/24 07:37:55;;;;;;;47.28;7.10;;;8.20;99.90;;;;;;5060934;28;20383;-76
2022/12/24 07:40:20;;;;;;;39.88;6.45;;;8.20;99.90;;;;;;5043794;28;20056;-76
2022/12/24 07:42:46;;;;;;;52.45;7.13;;;8.20;99.90;;;;;;5063164;28;20045;-76
2022/12/24 07:45:12;;;;;;;36.33;6.93;;;8.30;99.90;;;;;;5043273;28;20376;-77
2022/12/24 07:47:37;;;;;;;38.08;6.20;;;8.30;99.90;;;;;;5065200;28;20041;-77
2022/12/24 07:50:04;;;;;;;45.30;7.30;;;8.30;99.90;;;;;;5061556;28;20375;-76
2022/12/24 07:52:30;;;;;;;47.43;6.80;;;8.30;99.90;;;;;;5065017;28;20059;-77
2022/12/24 07:54:55;;;;;;;41.85;6.13;;;8.30;99.90;;;;;;5045190;28;20046;-77
2022/12/24 07:57:21;;;;;;;43.45;6.78;;;8.30;99.90;;;;;;5041460;28;20055;-77
2022/12/24 07:59:47;;;;;;;43.42;6.22;;;8.40;99.90;;;;;;5045454;28;20055;-77
2022/12/24 08:02:12;;;;;;;46.20;6.80;;;8.40;99.90;;;;;;5061260;28;20044;-78
2022/12/24 08:04:38;;;;;;;43.67;7.47;;;8.40;99.90;;;;;;5060934;28;20040;-77
2022/12/24 08:07:05;;;;;;;40.60;7.35;;;8.40;99.90;;;;;;5046934;28;20044;-77
2022/12/24 08:09:35;;;;;;;48.17;8.18;;;8.50;99.90;;;;;;5065300;28;20495;-77
2022/12/24 08:12:02;;;;;;;41.00;7.43;;;8.50;99.90;;;;;;5065349;28;20047;-77
2022/12/24 08:14:29;;;;;;;39.42;6.45;;;8.50;99.90;;;;;;5060887;28;20049;-79
2022/12/24 08:16:54;;;;;;;46.42;7.30;;;8.60;99.90;;;;;;5057400;28;20048;-78
2022/12/24 08:19:20;;;;;;;43.63;7.40;;;8.50;99.90;;;;;;5059245;28;20040;-77
2022/12/24 08:21:45;;;;;;;42.83;7.28;;;8.60;99.90;;;;;;5059820;28;21694;-77
2022/12/24 08:24:11;;;;;;;39.70;6.85;;;8.60;99.90;;;;;;5058431;28;20482;-76
2022/12/24 08:26:36;;;;;;;38.38;7.53;;;8.70;99.90;;;;;;5059522;28;20044;-76
2022/12/24 08:29:03;;;;;;;42.83;7.32;;;8.70;99.90;;;;;;5059692;28;20128;-78
2022/12/24 08:31:29;;;;;;;39.08;7.53;;;8.70;99.90;;;;;;5057869;28;20153;-77
2022/12/24 08:33:54;;;;;;;41.45;7.55;;;8.70;99.90;;;;;;5058576;28;20479;-74
2022/12/24 08:36:20;;;;;;;43.20;7.85;;;8.80;99.90;;;;;;5042615;28;20491;-78
2022/12/24 08:38:46;;;;;;;39.13;7.35;;;8.80;99.90;;;;;;5058068;28;20102;-76
2022/12/24 08:41:12;;;;;;;48.50;7.53;;;8.80;99.90;;;;;;5063099;28;20043;-76
2022/12/24 08:43:37;;;;;;;32.63;6.78;;;8.80;99.90;;;;;;5065984;28;20045;-76
2022/12/24 08:46:04;;;;;;;50.70;7.80;;;8.80;99.90;;;;;;5045805;28;20044;-77
2022/12/24 08:48:31;;;;;;;41.72;7.07;;;8.80;99.90;;;;;;5074882;28;20485;-77
2022/12/24 08:50:57;;;;;;;40.77;7.00;;;8.90;99.90;;;;;;5023843;28;20124;-77
2022/12/24 08:53:23;;;;;;;44.25;7.55;;;8.90;99.90;;;;;;5063730;28;20386;-81
2022/12/24 08:55:50;;;;;;;37.72;7.40;;;9.00;99.90;;;;;;5068713;28;20056;-77
2022/12/24 08:58:16;;;;;;;42.92;7.90;;;9.00;99.90;;;;;;5058941;28;20460;-77
2022/12/24 09:00:41;;;;;;;39.30;7.78;;;9.00;99.90;;;;;;5069790;28;20119;-78
2022/12/24 09:03:13;;;;;;;44.60;8.05;;;9.00;99.90;;;;;;5063332;28;20037;-78
2022/12/24 09:05:39;;;;;;;36.28;8.25;;;9.00;99.90;;;;;;5041383;28;20049;-78
2022/12/24 09:08:05;;;;;;;41.88;8.18;;;9.10;99.90;;;;;;5074096;28;20135;-78
2022/12/24 09:10:30;;;;;;;39.10;7.90;;;9.20;99.90;;;;;;5071392;28;20116;-78
2022/12/24 09:12:56;;;;;;;40.25;7.30;;;9.20;99.90;;;;;;5069258;28;20135;-78
2022/12/24 09:15:22;;;;;;;39.58;8.30;;;9.20;99.90;;;;;;5075051;28;20043;-78
2022/12/24 09:17:47;;;;;;;37.58;8.05;;;9.20;99.90;;;;;;5062684;28;20119;-78
2022/12/24 09:20:13;;;;;;;39.05;7.75;;;9.30;99.90;;;;;;5073935;28;20076;-78
2022/12/24 09:22:39;;;;;;;41.78;8.13;;;9.30;99.90;;;;;;5043159;28;20044;-78
2022/12/24 09:25:05;;;;;;;40.67;7.93;;;9.30;99.90;;;;;;5041545;28;20124;-78
2022/12/24 09:27:31;;;;;;;43.80;7.55;;;9.40;99.90;;;;;;5054756;28;20048;-78
2022/12/24 09:29:56;;;;;;;39.33;7.75;;;9.40;99.90;;;;;;5063452;28;20101;-78
2022/12/24 09:32:22;;;;;;;44.17;7.55;;;9.50;99.90;;;;;;5066514;28;20047;-77
2022/12/24 09:34:48;;;;;;;35.25;7.35;;;9.60;99.90;;;;;;5052579;28;20096;-78
2022/12/24 09:37:13;;;;;;;43.28;7.78;;;9.60;99.90;;;;;;5077543;28;20048;-78
2022/12/24 09:39:39;;;;;;;40.70;7.85;;;9.60;99.90;;;;;;5047680;28;20127;-78
2022/12/24 09:42:16;;;;;;;40.45;6.55;;;9.60;99.90;;;;;;5065029;28;20052;-78
2022/12/24 09:45:01;;;;;;;40.17;7.40;;;9.60;99.90;;;;;;5070141;28;20102;-77
2022/12/24 09:47:40;;;;;;;36.08;6.80;;;9.50;99.90;;;;;;5049752;28;20076;-78
2022/12/24 09:50:27;;;;;;;48.55;7.43;;;9.50;99.90;;;;;;5069839;28;20543;-77
2022/12/24 09:52:54;;;;;;;36.80;6.60;;;9.50;99.90;;;;;;5065634;28;20647;-78
2022/12/24 09:55:41;;;;;;;44.20;7.57;;;9.50;99.90;;;;;;5067566;28;20040;-78
2022/12/24 09:58:34;;;;;;;46.15;7.57;;;9.50;99.90;;;;;;5064712;28;20071;-78
2022/12/24 10:01:00;;;;;;;45.50;7.13;;;9.50;99.90;;;;;;5069267;28;20118;-77
2022/12/24 10:03:26;;;;;;;47.22;7.50;;;9.40;99.90;;;;;;5049680;28;20083;-77
2022/12/24 10:06:10;;;;;;;48.75;7.50;;;9.40;99.90;;;;;;5069109;28;20079;-77
2022/12/24 10:08:58;;;;;;;44.25;7.32;;;9.40;99.90;;;;;;5067840;28;20037;-77
2022/12/24 10:11:30;;;;;;;40.88;7.43;;;9.30;99.90;;;;;;5048000;28;20080;-76
2022/12/24 10:14:33;;;;;;;27.00;5.22;;;9.30;99.90;;;;;;5067106;28;20077;-77
2022/12/24 10:17:20;;;;;;;33.97;5.78;;;9.30;99.90;;;;;;5062330;28;20049;-76
2022/12/24 10:20:24;;;;;;;43.63;6.78;;;9.30;99.90;;;;;;5067522;28;20052;-77
2022/12/24 10:22:49;;;;;;;44.75;7.60;;;9.30;99.90;;;;;;5065521;28;20063;-77
2022/12/24 10:25:40;;;;;;;43.95;7.70;;;9.30;99.90;;;;;;5030332;28;21764;-76
2022/12/24 10:28:14;;;;;;;54.65;7.65;;;9.30;99.90;;;;;;5063273;28;20119;-76
2022/12/24 10:30:41;;;;;;;47.58;7.85;;;9.30;99.90;;;;;;5064958;28;20048;-76
2022/12/24 10:33:25;;;;;;;41.72;8.63;;;9.30;99.90;;;;;;5048231;28;20490;-76
2022/12/24 10:35:55;;;;;;;43.15;7.60;;;9.30;99.90;;;;;;5065529;28;20102;-76
2022/12/24 10:38:21;;;;;;;56.47;8.50;;;9.40;99.90;;;;;;5067069;28;20464;-78
2022/12/24 10:40:50;;;;;;;45.40;8.05;;;9.50;99.90;;;;;;5067632;28;20051;-77
2022/12/24 10:43:24;;;;;;;46.70;7.90;;;9.40;99.90;;;;;;5070836;28;20040;-78
2022/12/24 10:45:56;;;;;;;39.90;6.97;;;9.50;99.90;;;;;;5064003;28;20569;-78
2022/12/24 10:48:30;;;;;;;46.03;7.55;;;9.40;99.90;;;;;;5064833;28;20041;-78
2022/12/24 10:51:02;;;;;;;43.88;7.32;;;9.50;99.90;;;;;;5071283;28;20047;-79
2022/12/24 10:53:45;;;;;;;46.15;7.30;;;9.50;99.90;;;;;;5071391;28;20049;-77
2022/12/24 10:56:14;;;;;;;49.08;7.85;;;9.50;99.90;;;;;;5068015;28;20075;-78
2022/12/24 10:58:54;;;;;;;45.78;8.30;;;9.50;99.90;;;;;;5069323;28;20119;-78
2022/12/24 11:01:40;;;;;;;56.67;9.15;;;9.50;99.90;;;;;;5051900;28;20052;-78
2022/12/24 11:04:13;;;;;;;47.65;8.30;;;9.60;99.90;;;;;;5069108;28;20041;-78
2022/12/24 11:06:51;;;;;;;46.30;7.75;;;9.60;99.90;;;;;;5068755;28;20075;-78
2022/12/24 11:09:30;;;;;;;46.47;7.88;;;9.60;99.90;;;;;;5067888;28;20462;-78
2022/12/24 11:11:57;;;;;;;48.30;8.40;;;9.60;99.90;;;;;;5069531;28;20438;-78
2022/12/24 11:14:25;;;;;;;40.37;7.50;;;9.60;99.90;;;;;;5071355;28;20056;-77
2022/12/24 11:16:55;;;;;;;49.70;8.98;;;9.60;99.90;;;;;;5069368;28;20040;-78
2022/12/24 11:19:31;;;;;;;45.03;8.02;;;9.70;99.90;;;;;;5067289;28;20403;-78
2022/12/24 11:22:00;;;;;;;42.08;8.13;;;9.70;99.90;;;;;;5068731;28;20028;-78
2022/12/24 11:24:29;;;;;;;44.20;7.90;;;9.70;99.90;;;;;;5034134;28;20036;-78
2022/12/24 11:27:16;;;;;;;62.45;9.10;;;9.70;99.90;;;;;;5066680;28;20040;-78
2022/12/24 11:29:42;;;;;;;47.63;7.25;;;9.70;99.90;;;;;;5049483;28;20047;-78
2022/12/24 11:32:21;;;;;;;44.55;7.93;;;9.70;99.90;;;;;;5070320;28;20040;-78
2022/12/24 11:34:47;;;;;;;45.55;7.57;;;9.80;99.90;;;;;;5075278;28;20068;-79
2022/12/24 11:37:21;;;;;;;38.72;7.22;;;9.80;99.90;;;;;;5058778;28;20037;-79
2022/12/24 11:39:53;;;;;;;43.00;7.28;;;9.80;99.90;;;;;;5068975;28;20790;-79
2022/12/24 11:42:24;;;;;;;37.97;6.40;;;9.90;99.90;;;;;;5075117;28;20112;-78
2022/12/24 11:44:50;;;;;;;55.50;8.57;;;9.90;99.90;;;;;;5070077;28;20470;-79
2022/12/24 11:47:16;;;;;;;43.45;8.38;;;;;;;;;;5071710;28;20040;-78
2022/12/24 11:49:42;;;;;;;35.00;6.53;;;;;;;;;;5071617;28;20028;-79
2022/12/24 11:52:11;;;;;;;32.97;6.40;;;;;;;;;;5076017;28;20113;-79
2022/12/24 11:54:56;;;;;;;42.35;7.05;;;;;;;;;;5061730;28;20537;-79
2022/12/24 11:57:24;;;;;;;39.17;6.68;;;;;;;;;;5070477;28;20123;-79
2022/12/24 11:59:51;;;;;;;37.03;7.35;;;;;;;;;;5070404;28;20494;-78
2022/12/24 12:02:27;;;;;;;31.35;5.90;;;;;;;;;;5035677;28;20045;-79
2022/12/24 12:04:57;;;;;;;33.60;5.78;;;;;;;;;;5066378;28;20037;-79
2022/12/24 12:07:28;;;;;;;42.55;7.05;;;;;;;;;;5069682;28;20082;-79
2022/12/24 12:09:59;;;;;;;37.15;6.65;;;;;;;;;;5076811;28;20044;-79
2022/12/24 12:12:29;;;;;;;44.30;6.68;;;;;;;;;;5056984;28;20072;-79
2022/12/24 12:15:17;;;;;;;38.35;6.72;;;;;;;;;;5037002;28;20040;-79
2022/12/24 12:17:49;;;;;;;36.10;6.28;;;;;;;;;;5079653;28;20499;-79
2022/12/24 12:20:22;;;;;;;32.30;5.90;;;;;;;;;;5086381;28;20059;-78
2022/12/24 12:22:59;;;;;;;28.98;6.05;;;;;;;;;;5057140;28;20156;-78
2022/12/24 12:25:32;;;;;;;27.73;5.65;;;;;;;;;;5065862;28;20095;-79
2022/12/24 12:28:00;;;;;;;30.05;6.18;;;;;;;;;;5049634;28;20048;-79
2022/12/24 12:30:26;;;;;;;29.27;5.30;;;;;;;;;;5039984;28;20115;-79
2022/12/24 12:32:55;;;;;;;35.33;6.90;;;;;;;;;;5033978;28;20036;-79
2022/12/24 12:35:24;;;;;;;31.88;5.97;;;;;;;;;;5079123;28;20081;-79
2022/12/24 12:37:54;;;;;;;32.67;5.88;;;;;;;;;;5076146;28;20553;-78
2022/12/24 12:40:20;;;;;;;36.10;6.05;;;;;;;;;;5059991;28;20051;-78
2022/12/24 12:42:58;;;;;;;30.20;5.32;;;;;;;;;;5070954;28;20052;-78
2022/12/24 12:45:45;;;;;;;32.78;5.63;;;;;;;;;;5063508;28;20425;-78
2022/12/24 12:48:34;;;;;;;24.92;4.68;;;;;;;;;;5011125;28;20072;-78
2022/12/24 12:51:04;;;;;;;29.02;5.28;;;;;;;;;;5058268;28;20049;-78
2022/12/24 12:53:42;;;;;;;26.58;5.38;;;;;;;;;;5043063;28;20053;-77
2022/12/24 12:56:08;;;;;;;31.13;5.35;;;;;;;;;;5055172;28;20083;-78
2022/12/24 12:59:04;;;;;;;23.70;4.57;;;;;;;;;;5056413;28;20075;-78
2022/12/24 13:01:41;;;;;;;30.77;5.15;;;;;;;;;;5042732;28;20131;-78
2022/12/24 13:04:26;;;;;;;25.90;5.18;;;;;;;;;;5051901;28;20072;-78
2022/12/24 13:06:58;;;;;;;27.02;5.20;;;;;;;;;;5054907;28;20056;-78
2022/12/24 13:09:27;;;;;;;24.50;4.63;;;;;;;;;;5071768;28;20098;-78
2022/12/24 13:11:59;;;;;;;30.65;4.97;;;;;;;;;;5083184;28;20069;-78
2022/12/24 13:14:28;;;;;;;23.77;4.90;;;;;;;;;;5074788;28;20522;-78
2022/12/24 13:16:54;;;;;;;23.85;5.03;;;;;;;;;;5067390;28;20406;-79
2022/12/24 13:19:32;;;;;;;24.17;4.88;;;;;;;;;;5061981;28;20071;-77
2022/12/24 13:21:58;;;;;;;27.25;5.53;;;;;;;;;;5074433;28;20150;-78
2022/12/24 13:24:26;;;;;;;30.85;5.32;;;;;;;;;;5063430;28;20041;-78
2022/12/24 13:26:52;;;;;;;;;;;;;;;;;;5056006;28;20052;-78